Time;durP1;ratioP1;P1;durP2;ratioP2;P2;SDS_P1;SDS_P2;PMS_P1;PMS_P2;Temp;Humidity;BMP_temperature;BMP_pressure;BME280_temperature;BME280_humidity;BME280_pressure;Samples;Min_cycle;Max_cycle;Signal;HPM_P1;HPM_P2
2023/09/12 00:02:03;;;;;;;;;;;21.80;99.90;;;;;;5022038;28;19909;-77
2023/09/12 00:04:29;;;;;;;;;;;21.90;99.90;;;;;;5027155;28;20289;-77
2023/09/12 00:06:54;;;;;;;;;;;21.90;99.90;;;;;;5036778;28;19905;-77
2023/09/12 00:09:20;;;;;;;;;;;21.80;99.90;;;;;;5037071;28;19909;-78
2023/09/12 00:11:45;;;;;;;;;;;21.80;99.90;;;;;;5036795;28;19913;-77
2023/09/12 00:14:15;;;;;;;;;;;21.60;99.90;;;;;;5036671;28;19905;-77
2023/09/12 00:16:40;;;;;;;;;;;21.40;99.90;;;;;;5035874;28;19906;-78
2023/09/12 00:19:06;;;;;;;;;;;21.30;99.90;;;;;;5036767;28;19909;-79
2023/09/12 00:21:31;;;;;;;;;;;21.10;99.90;;;;;;5036404;28;19909;-77
2023/09/12 00:23:57;;;;;;;;;;;21.10;99.90;;;;;;5035626;28;19912;-78
2023/09/12 00:26:22;;;;;;;;;;;21.00;99.90;;;;;;5036479;28;19919;-81
2023/09/12 00:28:48;;;;;;;;;;;20.90;99.90;;;;;;5036867;28;20943;-81
2023/09/12 00:31:13;;;;;;;;;;;20.90;99.90;;;;;;5051333;28;19905;-78
2023/09/12 00:33:39;;;;;;;;;;;20.80;99.90;;;;;;5035129;28;19971;-78
2023/09/12 00:36:04;;;;;;;;;;;20.80;99.90;;;;;;5035511;28;19924;-78
2023/09/12 00:38:30;;;;;;;;;;;20.80;99.90;;;;;;5028198;28;19941;-77
2023/09/12 00:40:55;;;;;;;;;;;20.70;99.90;;;;;;5029429;28;19940;-78
2023/09/12 00:43:21;;;;;;;;;;;20.70;99.90;;;;;;5023174;28;19940;-77
2023/09/12 00:45:46;;;;;;;;;;;20.70;99.90;;;;;;5037464;28;19920;-77
2023/09/12 00:48:12;;;;;;;;;;;20.70;99.90;;;;;;5016246;28;19916;-77
2023/09/12 00:50:38;;;;;;;;;;;20.70;99.90;;;;;;5018507;28;19920;-78
2023/09/12 00:53:04;;;;;;;;;;;20.70;99.90;;;;;;5017923;28;19916;-77
2023/09/12 00:55:31;;;;;;;;;;;20.60;99.90;;;;;;5019165;28;19948;-80
2023/09/12 00:57:57;;;;;;;;;;;20.60;99.90;;;;;;5018827;28;19916;-77
2023/09/12 01:00:23;;;;;;;;;;;20.60;99.90;;;;;;5020031;28;19909;-77
2023/09/12 01:02:49;;;;;;;;;;;20.60;99.90;;;;;;5018271;28;20040;-78
2023/09/12 01:05:15;;;;;;;;;;;20.60;99.90;;;;;;5017725;28;19960;-78
2023/09/12 01:07:42;;;;;;;;;;;20.60;99.90;;;;;;5017252;28;19909;-78
2023/09/12 01:10:08;;;;;;;;;;;20.60;99.90;;;;;;5016518;28;20445;-77
2023/09/12 01:12:34;;;;;;;;;;;20.60;99.90;;;;;;5016115;28;19905;-77
2023/09/12 01:15:00;;;;;;;;;;;20.60;99.90;;;;;;5017516;28;19913;-78
2023/09/12 01:17:26;;;;;;;;;;;20.60;99.90;;;;;;5016925;28;19906;-77
2023/09/12 01:19:51;;;;;;;;;;;20.60;99.90;;;;;;5028293;28;19947;-76
2023/09/12 01:22:37;;;;;;;;;;;20.60;99.90;;;;;;5024111;28;20099;-77
2023/09/12 01:25:09;;;;;;;;;;;20.60;99.90;;;;;;5034384;28;19952;-77
2023/09/12 01:27:37;;;;;;;;;;;20.60;99.90;;;;;;5022343;28;19965;-77
2023/09/12 01:30:04;;;;;;;;;;;20.60;99.90;;;;;;5034018;28;19951;-77
2023/09/12 01:32:31;;;;;;;;;;;20.70;99.90;;;;;;5034465;28;19909;-77
2023/09/12 01:34:56;;;;;;;;;;;20.70;99.90;;;;;;5015793;28;19905;-78
2023/09/12 01:37:22;;;;;;;;;;;20.70;99.90;;;;;;5029266;28;19963;-77
2023/09/12 01:39:48;;;;;;;;;;;20.70;99.90;;;;;;5016153;28;19910;-77
2023/09/12 01:42:15;;;;;;;;;;;20.70;99.90;;;;;;5016832;28;19915;-75
2023/09/12 01:44:42;;;;;;;;;;;20.70;99.90;;;;;;5025853;28;19916;-77
2023/09/12 01:47:09;;;;;;;;;;;20.70;99.90;;;;;;5017590;28;19906;-77
2023/09/12 01:49:35;;;;;;;;;;;20.70;99.90;;;;;;5016826;28;19905;-77
2023/09/12 01:52:01;;;;;;;;;;;20.70;99.90;;;;;;5016785;28;19971;-78
2023/09/12 01:54:27;;;;;;;;;;;20.70;99.90;;;;;;5020847;28;19906;-78
2023/09/12 01:56:55;;;;;;;;;;;20.70;99.90;;;;;;5021685;28;19951;-79
2023/09/12 01:59:21;;;;;;;;;;;20.60;99.90;;;;;;5031803;28;19996;-80
2023/09/12 02:01:46;;;;;;;;;;;20.60;99.90;;;;;;5021876;28;20403;-80
2023/09/12 02:04:12;;;;;;;;;;;20.50;99.90;;;;;;5035759;28;19953;-80
2023/09/12 02:06:37;;;;;;;;;;;20.40;99.90;;;;;;5020963;28;19973;-78
2023/09/12 02:09:03;;;;;;;;;;;20.30;99.90;;;;;;5021050;28;19976;-79
2023/09/12 02:11:28;;;;;;;;;;;20.20;99.90;;;;;;5038344;28;19988;-80
2023/09/12 02:13:54;;;;;;;;;;;20.00;99.90;;;;;;5045008;28;20478;-76
2023/09/12 02:16:19;;;;;;;;;;;19.80;99.90;;;;;;5039059;28;20301;-77
2023/09/12 02:18:45;;;;;;;;;;;19.60;99.90;;;;;;5032834;28;19967;-76
2023/09/12 02:21:10;;;;;;;;;;;19.50;99.90;;;;;;5027792;28;19904;-77
2023/09/12 02:23:36;;;;;;;;;;;19.40;99.90;;;;;;5024468;28;19906;-78
2023/09/12 02:26:01;;;;;;;;;;;19.30;99.90;;;;;;5026907;28;19912;-77
2023/09/12 02:28:27;;;;;;;;;;;19.20;99.90;;;;;;5019056;28;19916;-77
2023/09/12 02:30:52;;;;;;;;;;;19.20;99.90;;;;;;5031362;28;19992;-76
2023/09/12 02:33:18;;;;;;;;;;;19.10;99.90;;;;;;5020137;28;19909;-77
2023/09/12 02:35:44;;;;;;;;;;;19.10;99.90;;;;;;5019842;28;20020;-76
2023/09/12 02:38:09;;;;;;;;;;;19.10;99.90;;;;;;5032251;28;19905;-77
2023/09/12 02:40:35;;;;;;;;;;;19.10;99.90;;;;;;5031064;28;19916;-77
2023/09/12 02:43:00;;;;;;;;;;;19.10;99.90;;;;;;5022300;28;19917;-77
2023/09/12 02:45:26;;;;;;;;;;;19.10;99.90;;;;;;5031846;28;19916;-77
2023/09/12 02:47:51;;;;;;;;;;;19.10;99.90;;;;;;5026570;28;20365;-76
2023/09/12 02:50:17;;;;;;;;;;;19.20;99.90;;;;;;5031219;28;20357;-76
2023/09/12 02:52:42;;;;;;;;;;;19.30;99.90;;;;;;5026438;28;20004;-76
2023/09/12 02:55:08;;;;;;;;;;;19.30;99.90;;;;;;5029880;28;19961;-76
2023/09/12 02:57:33;;;;;;;;;;;19.40;99.90;;;;;;5026895;28;19912;-77
2023/09/12 02:59:59;;;;;;;;;;;19.40;99.90;;;;;;5031369;28;20043;-77
2023/09/12 03:02:24;;;;;;;;;;;19.40;99.90;;;;;;5046939;28;20051;-76
2023/09/12 03:04:50;;;;;;;;;;;19.50;99.90;;;;;;5019519;28;19912;-77
2023/09/12 03:07:15;;;;;;;;;;;19.50;99.90;;;;;;5025584;28;19909;-77
2023/09/12 03:09:41;;;;;;;;;;;19.50;99.90;;;;;;5036328;28;19940;-77
2023/09/12 03:12:07;;;;;;;;;;;19.50;99.90;;;;;;5028420;28;20374;-77
2023/09/12 03:14:32;;;;;;;;;;;19.50;99.90;;;;;;5032919;28;19905;-77
2023/09/12 03:16:58;;;;;;;;;;;19.50;99.90;;;;;;5028885;28;20353;-77
2023/09/12 03:19:23;;;;;;;;;;;19.50;99.90;;;;;;5031420;28;19909;-77
2023/09/12 03:21:49;;;;;;;;;;;19.50;99.90;;;;;;5027681;28;19916;-77
2023/09/12 03:24:18;;;;;;;;;;;19.50;99.90;;;;;;5029924;28;19905;-78
2023/09/12 03:26:43;;;;;;;;;;;19.50;99.90;;;;;;5026123;28;19909;-78
2023/09/12 03:29:09;;;;;;;;;;;19.50;99.90;;;;;;5028804;28;19916;-78
2023/09/12 03:31:35;;;;;;;;;;;19.50;99.90;;;;;;5025750;28;19909;-79
2023/09/12 03:34:01;;;;;;;;;;;19.50;99.90;;;;;;5029914;28;19905;-78
2023/09/12 03:36:26;;;;;;;;;;;19.40;99.90;;;;;;5046980;28;19986;-78
2023/09/12 03:38:52;;;;;;;;;;;19.40;99.90;;;;;;5030688;28;19909;-79
2023/09/12 03:41:17;;;;;;;;;;;19.40;99.90;;;;;;5026224;28;19909;-78
2023/09/12 03:43:43;;;;;;;;;;;19.40;99.90;;;;;;5031827;28;19905;-79
2023/09/12 03:46:08;;;;;;;;;;;19.50;99.90;;;;;;5024762;28;19940;-79
2023/09/12 03:48:36;;;;;;;;;;;19.50;99.90;;;;;;5027406;28;19916;-79
2023/09/12 03:51:03;;;;;;;;;;;19.50;99.90;;;;;;5023397;28;19905;-79
2023/09/12 03:53:29;;;;;;;;;;;19.50;99.90;;;;;;5026877;28;19964;-79
2023/09/12 03:55:54;;;;;;;;;;;19.60;99.90;;;;;;5025209;28;20392;-79
2023/09/12 03:58:20;;;;;;;;;;;19.50;99.90;;;;;;5027684;28;19916;-80
2023/09/12 04:00:45;;;;;;;;;;;19.60;99.90;;;;;;5025264;28;19929;-78
2023/09/12 04:03:11;;;;;;;;;;;19.60;99.90;;;;;;5033816;28;20369;-80
2023/09/12 04:05:36;;;;;;;;;;;19.60;99.90;;;;;;5025312;28;20361;-80
2023/09/12 04:08:02;;;;;;;;;;;19.50;99.90;;;;;;5028615;28;19917;-80
2023/09/12 04:10:28;;;;;;;;;;;19.60;99.90;;;;;;5024609;28;20029;-79
2023/09/12 04:12:53;;;;;;;;;;;19.60;99.90;;;;;;5028886;28;19905;-78
2023/09/12 04:15:19;;;;;;;;;;;19.50;99.90;;;;;;5025316;28;19906;-79
2023/09/12 04:17:44;;;;;;;;;;;19.50;99.90;;;;;;5029263;28;19954;-71
2023/09/12 04:20:13;;;;;;;;;;;19.50;99.90;;;;;;5025803;28;19909;-70
2023/09/12 04:22:39;;;;;;;;;;;19.50;99.90;;;;;;5033517;28;20364;-70
2023/09/12 04:25:05;;;;;;;;;;;19.60;99.90;;;;;;5024379;28;19932;-70
2023/09/12 04:27:30;;;;;;;;;;;19.70;99.90;;;;;;5028191;28;20803;-69
2023/09/12 04:29:56;;;;;;;;;;;19.60;99.90;;;;;;5024336;28;19959;-70
2023/09/12 04:32:23;;;;;;;;;;;19.60;99.90;;;;;;5027335;28;19909;-70
2023/09/12 04:34:49;;;;;;;;;;;19.60;99.90;;;;;;5025166;28;20766;-70
2023/09/12 04:37:14;;;;;;;;;;;19.50;99.90;;;;;;5033423;28;19928;-70
2023/09/12 04:39:40;;;;;;;;;;;19.50;99.90;;;;;;5023916;28;20016;-70
2023/09/12 04:42:05;;;;;;;;;;;19.40;99.90;;;;;;5027243;28;19905;-70
2023/09/12 04:44:34;;;;;;;;;;;19.30;99.90;;;;;;5028006;28;19909;-70
2023/09/12 04:47:00;;;;;;;;;;;19.30;99.90;;;;;;5028939;28;19916;-69
2023/09/12 04:49:25;;;;;;;;;;;19.20;99.90;;;;;;5024728;28;19905;-70
2023/09/12 04:51:51;;;;;;;;;;;19.10;99.90;;;;;;5033919;28;19913;-70
2023/09/12 04:54:16;;;;;;;;;;;19.10;99.90;;;;;;5024589;28;19909;-70
2023/09/12 04:56:42;;;;;;;;;;;19.00;99.90;;;;;;5028531;28;19956;-70
2023/09/12 04:59:07;;;;;;;;;;;18.90;99.90;;;;;;5024516;28;19952;-70
2023/09/12 05:01:33;;;;;;;;;;;18.90;99.90;;;;;;5033165;28;19937;-70
2023/09/12 05:03:58;;;;;;;;;;;18.90;99.90;;;;;;5024701;28;20008;-69
2023/09/12 05:06:24;;;;;;;;;;;18.80;99.90;;;;;;5027414;28;19920;-70
2023/09/12 05:08:49;;;;;;;;;;;18.80;99.90;;;;;;5022812;28;20003;-70
2023/09/12 05:11:15;;;;;;;;;;;18.80;99.90;;;;;;5027667;28;19916;-70
2023/09/12 05:13:41;;;;;;;;;;;18.80;99.90;;;;;;5021705;28;19905;-70
2023/09/12 05:16:06;;;;;;;;;;;18.80;99.90;;;;;;5015738;28;20415;-70
2023/09/12 05:18:32;;;;;;;;;;;18.90;99.90;;;;;;5033738;28;19905;-69
2023/09/12 05:20:57;;;;;;;;;;;18.80;99.90;;;;;;5028303;28;19916;-70
2023/09/12 05:23:23;;;;;;;;;;;18.80;99.90;;;;;;5039538;28;19910;-70
2023/09/12 05:25:48;;;;;;;;;;;18.80;99.90;;;;;;5025196;28;19909;-70
2023/09/12 05:28:15;;;;;;;;;;;18.80;99.90;;;;;;5020928;28;19906;-70
2023/09/12 05:30:41;;;;;;;;;;;18.80;99.90;;;;;;5027742;28;20373;-70
2023/09/12 05:33:07;;;;;;;;;;;18.80;99.90;;;;;;5018537;28;19905;-70
2023/09/12 05:35:33;;;;;;;;;;;18.70;99.90;;;;;;5018184;28;20459;-70
2023/09/12 05:37:58;;;;;;;;;;;18.70;99.90;;;;;;5031534;28;19913;-70
2023/09/12 05:40:24;;;;;;;;;;;18.70;99.90;;;;;;5018548;28;19909;-70
2023/09/12 05:42:49;;;;;;;;;;;18.70;99.90;;;;;;5020381;28;19905;-70
2023/09/12 05:45:15;;;;;;;;;;;18.70;99.90;;;;;;5030982;28;19916;-70
2023/09/12 05:47:40;;;;;;;;;;;18.80;99.90;;;;;;5027508;28;19924;-70
2023/09/12 05:50:06;;;;;;;;;;;18.80;99.90;;;;;;5030746;28;19916;-70
2023/09/12 05:52:32;;;;;;;;;;;18.80;99.90;;;;;;5027370;28;19932;-70
2023/09/12 05:54:58;;;;;;;;;;;18.80;99.90;;;;;;5030896;28;20269;-70
2023/09/12 05:57:23;;;;;;;;;;;18.80;99.90;;;;;;5025264;28;19913;-70
2023/09/12 05:59:49;;;;;;;;;;;18.90;99.90;;;;;;5025362;28;19909;-70
2023/09/12 06:02:14;;;;;;;;;;;18.90;99.90;;;;;;5030788;28;19913;-70
2023/09/12 06:04:40;;;;;;;;;;;18.90;99.90;;;;;;5032962;28;20003;-70
2023/09/12 06:07:05;;;;;;;;;;;19.00;99.90;;;;;;5023457;28;19913;-70
2023/09/12 06:09:31;;;;;;;;;;;19.00;99.90;;;;;;5033959;28;19909;-71
2023/09/12 06:11:56;;;;;;;;;;;19.10;99.90;;;;;;5033242;28;19979;-70
2023/09/12 06:14:22;;;;;;;;;;;19.20;99.90;;;;;;5034784;28;19909;-70
2023/09/12 06:16:48;;;;;;;;;;;19.30;99.90;;;;;;5026783;28;20008;-71
2023/09/12 06:19:17;;;;;;;;;;;19.30;99.90;;;;;;5033027;28;19928;-70
2023/09/12 06:21:43;;;;;;;;;;;19.40;99.90;;;;;;5033345;28;19920;-70
2023/09/12 06:24:08;;;;;;;;;;;19.40;99.90;;;;;;5033835;28;19905;-70
2023/09/12 06:26:34;;;;;;;;;;;19.50;99.90;;;;;;5031618;28;19992;-70
2023/09/12 06:28:59;;;;;;;;;;;19.60;99.90;;;;;;5033706;28;19959;-70
2023/09/12 06:31:25;;;;;;;;;;;19.70;99.90;;;;;;5049290;28;19909;-70
2023/09/12 06:33:50;;;;;;;;;;;19.90;99.90;;;;;;5033890;28;20274;-70
2023/09/12 06:36:16;;;;;;;;;;;20.10;99.90;;;;;;5033721;28;20282;-70
2023/09/12 06:38:41;;;;;;;;;;;20.30;99.90;;;;;;5033561;28;20357;-70
2023/09/12 06:41:07;;;;;;;;;;;20.50;99.90;;;;;;5037631;28;20329;-70
2023/09/12 06:43:32;;;;;;;;;;;20.60;99.90;;;;;;5034755;28;20377;-70
2023/09/12 06:45:58;;;;;;;;;;;20.60;99.90;;;;;;5025452;28;20393;-70
2023/09/12 06:48:24;;;;;;;;;;;20.70;99.90;;;;;;5024041;28;19914;-70
2023/09/12 06:50:50;;;;;;;;;;;20.80;99.90;;;;;;5027746;28;19913;-70
2023/09/12 06:53:15;;;;;;;;;;;20.80;99.90;;;;;;5035780;28;19905;-70
2023/09/12 06:55:41;;;;;;;;;;;20.70;99.90;;;;;;5037000;28;19909;-70
2023/09/12 06:58:07;;;;;;;;;;;20.80;99.90;;;;;;5035240;28;19905;-70
2023/09/12 07:00:33;;;;;;;;;;;20.80;99.90;;;;;;5028581;28;20332;-70
2023/09/12 07:02:59;;;;;;;;;;;20.70;99.90;;;;;;5033738;28;19909;-70
2023/09/12 07:05:24;;;;;;;;;;;20.80;99.90;;;;;;5026643;28;20262;-70
2023/09/12 07:07:50;;;;;;;;;;;21.00;99.90;;;;;;5030920;28;19905;-70
2023/09/12 07:10:15;;;;;;;;;;;21.00;99.90;;;;;;5024675;28;19935;-70
2023/09/12 07:12:41;;;;;;;;;;;21.00;99.90;;;;;;5021784;28;19906;-70
2023/09/12 07:15:06;;;;;;;;;;;21.10;99.90;;;;;;5024495;28;19909;-70
2023/09/12 07:17:32;;;;;;;;;;;21.30;99.90;;;;;;5022596;28;19909;-70
2023/09/12 07:19:57;;;;;;;;;;;21.40;99.90;;;;;;5025146;28;19936;-70
2023/09/12 07:22:23;;;;;;;;;;;21.50;99.90;;;;;;5022396;28;19965;-70
2023/09/12 07:24:48;;;;;;;;;;;21.50;99.90;;;;;;5025249;28;20344;-70
2023/09/12 07:27:14;;;;;;;;;;;21.50;99.90;;;;;;5022220;28;19909;-70
2023/09/12 07:29:39;;;;;;;;;;;21.80;99.90;;;;;;5024264;28;19913;-71
2023/09/12 07:32:05;;;;;;;;;;;21.90;99.90;;;;;;5023090;28;19913;-71
2023/09/12 07:34:30;;;;;;;;;;;21.90;99.90;;;;;;5026234;28;20262;-70
2023/09/12 07:36:56;;;;;;;;;;;21.80;99.90;;;;;;5031124;28;19917;-70
2023/09/12 07:39:22;;;;;;;;;;;21.80;99.90;;;;;;5026334;28;19912;-70
2023/09/12 07:41:47;;;;;;;;;;;21.80;99.90;;;;;;5033330;28;19935;-70
2023/09/12 07:44:15;;;;;;;;;;;21.80;99.90;;;;;;5032297;28;19980;-70
2023/09/12 07:46:41;;;;;;;;;;;21.90;99.90;;;;;;5035785;28;19913;-70
2023/09/12 07:49:08;;;;;;;;;;;22.00;99.90;;;;;;5034992;28;19912;-70
2023/09/12 07:51:33;;;;;;;;;;;22.00;99.90;;;;;;5030702;28;19935;-77
2023/09/12 07:53:59;;;;;;;;;;;22.10;99.90;;;;;;5034991;28;19912;-77
2023/09/12 07:56:24;;;;;;;;;;;22.00;99.90;;;;;;5035565;28;19952;-77
2023/09/12 07:58:50;;;;;;;;;;;21.80;99.90;;;;;;5023262;28;19916;-76
2023/09/12 08:01:15;;;;;;;;;;;21.70;99.90;;;;;;5019087;28;19947;-77
2023/09/12 08:03:41;;;;;;;;;;;21.60;99.90;;;;;;5020261;28;19912;-77
2023/09/12 08:06:07;;;;;;;;;;;21.60;99.90;;;;;;5019480;28;19909;-76
2023/09/12 08:08:32;;;;;;;;;;;21.50;99.90;;;;;;5020989;28;19905;-77
2023/09/12 08:10:58;;;;;;;;;;;21.50;99.90;;;;;;5018736;28;19920;-76
2023/09/12 08:13:27;;;;;;;;;;;21.50;99.90;;;;;;5021125;28;19909;-76
2023/09/12 08:15:53;;;;;;;;;;;21.40;99.90;;;;;;5027961;28;19905;-76
2023/09/12 08:18:19;;;;;;;;;;;21.50;99.90;;;;;;5041765;28;19916;-77
2023/09/12 08:20:44;;;;;;;;;;;21.50;99.90;;;;;;5035297;28;19908;-77
2023/09/12 08:23:10;;;;;;;;;;;21.60;99.90;;;;;;5036103;28;19904;-76
2023/09/12 08:25:36;;;;;;;;;;;21.60;99.90;;;;;;5035912;28;19944;-76
2023/09/12 08:28:01;;;;;;;;;;;21.60;99.90;;;;;;5035436;28;19913;-76
2023/09/12 08:30:29;;;;;;;;;;;21.60;99.90;;;;;;5032886;28;20415;-76
2023/09/12 08:32:55;;;;;;;;;;;21.60;99.90;;;;;;5033818;28;19917;-77
2023/09/12 08:35:20;;;;;;;;;;;21.60;99.90;;;;;;5035252;28;19996;-76
2023/09/12 08:37:46;;;;;;;;;;;21.70;99.90;;;;;;5032331;28;20000;-76
2023/09/12 08:40:12;;;;;;;;;;;21.70;99.90;;;;;;5034191;28;19988;-76
2023/09/12 08:42:44;;;;;;;;;;;21.70;99.90;;;;;;5030894;28;20368;-76
2023/09/12 08:45:19;;;;;;;;;;;21.70;99.90;;;;;;5032581;28;20454;-77
2023/09/12 08:47:45;;;;;;;;;;;21.80;99.90;;;;;;5034765;28;20377;-77
2023/09/12 08:50:16;;;;;;;;;;;21.90;99.90;;;;;;5035012;28;19904;-76
2023/09/12 08:52:42;;;;;;;;;;;21.90;99.90;;;;;;5034460;28;19911;-76
2023/09/12 08:55:08;;;;;;;;;;;22.00;99.90;;;;;;5033197;28;19908;-77
2023/09/12 08:57:35;;;;;;;;;;;21.90;99.90;;;;;;5032753;28;19912;-76
2023/09/12 09:00:12;;;;;;;;;;;21.90;99.90;;;;;;5048807;28;19909;-76
2023/09/12 09:02:38;;;;;;;;;;;21.90;99.90;;;;;;5033560;28;19909;-76
2023/09/12 09:05:05;;;;;;;;;;;21.90;99.90;;;;;;5035322;28;20619;-76
2023/09/12 09:07:41;;;;;;;;;;;21.90;99.90;;;;;;5033777;28;19909;-76
2023/09/12 09:10:08;;;;;;;;;;;21.80;99.90;;;;;;5032210;28;19909;-76
2023/09/12 09:12:34;;;;;;;;;;;21.80;99.90;;;;;;5033944;28;19905;-76
2023/09/12 09:15:20;;;;;;;;;;;21.70;99.90;;;;;;5034222;28;20039;-76
2023/09/12 09:17:46;;;;;;;;;;;21.70;99.90;;;;;;5030022;28;19905;-76
2023/09/12 09:20:20;;;;;;;;;;;21.70;99.90;;;;;;5034433;28;19916;-76
2023/09/12 09:22:55;;;;;;;;;;;21.60;99.90;;;;;;5030457;28;19983;-76
2023/09/12 09:25:21;;;;;;;;;;;21.60;99.90;;;;;;5029891;28;19917;-75
2023/09/12 09:27:46;;;;;;;;;;;21.60;99.90;;;;;;5034355;28;19963;-76
2023/09/12 09:30:14;;;;;;;;;;;21.60;99.90;;;;;;5035290;28;20383;-77
2023/09/12 09:32:39;;;;;;;;;;;21.60;99.90;;;;;;5035674;28;19911;-76
2023/09/12 09:35:05;;;;;;;;;;;21.60;99.90;;;;;;5035150;28;19991;-76
2023/09/12 09:37:30;;;;;;;;;;;21.60;99.90;;;;;;5033615;28;20961;-76
2023/09/12 09:39:56;;;;;;;;;;;21.70;99.90;;;;;;5032528;28;19905;-76
2023/09/12 09:42:22;;;;;;;;;;;21.80;99.90;;;;;;5033697;28;20285;-77
2023/09/12 09:44:49;;;;;;;;;;;21.90;99.90;;;;;;5033085;28;19924;-76
2023/09/12 09:47:15;;;;;;;;;;;22.00;99.90;;;;;;5028245;28;19919;-77
2023/09/12 09:49:40;;;;;;;;;;;22.10;99.90;;;;;;5029906;28;20288;-77
2023/09/12 09:52:06;;;;;;;;;;;22.20;99.90;;;;;;5033711;28;20318;-77
2023/09/12 09:54:32;;;;;;;;;;;22.20;99.90;;;;;;5035127;28;19912;-76
2023/09/12 09:56:57;;;;;;;;;;;22.20;99.90;;;;;;5034749;28;20004;-76
2023/09/12 09:59:24;;;;;;;;;;;22.30;99.90;;;;;;5032741;28;19937;-76
2023/09/12 10:01:51;;;;;;;;;;;22.20;99.90;;;;;;5033525;28;19912;-76
2023/09/12 10:04:17;;;;;;;;;;;22.10;99.90;;;;;;5033195;28;19935;-76
2023/09/12 10:06:43;;;;;;;;;;;22.10;99.90;;;;;;5029596;28;20471;-77
2023/09/12 10:09:10;;;;;;;;;;;21.90;99.90;;;;;;5030126;28;19923;-76
2023/09/12 10:11:37;;;;;;;;;;;22.00;99.90;;;;;;5028742;28;20292;-76
2023/09/12 10:14:03;;;;;;;;;;;21.80;99.90;;;;;;5034737;28;20021;-77
2023/09/12 10:16:30;;;;;;;;;;;21.70;99.90;;;;;;5036289;28;19905;-77
2023/09/12 10:19:03;;;;;;;;;;;21.70;99.90;;;;;;5036473;28;19909;-77
2023/09/12 10:21:33;;;;;;;;;;;21.60;99.90;;;;;;5036088;28;20629;-76
2023/09/12 10:24:00;;;;;;;;;;;21.60;99.90;;;;;;5029220;28;19968;-76
2023/09/12 10:26:25;;;;;;;;;;;21.60;99.90;;;;;;5036661;28;19952;-76
2023/09/12 10:28:51;;;;;;;;;;;21.60;99.90;;;;;;5038315;28;19912;-76
2023/09/12 10:31:17;;;;;;;;;;;21.50;99.90;;;;;;5033559;28;19924;-76
2023/09/12 10:33:44;;;;;;;;;;;21.50;99.90;;;;;;5037002;28;19936;-77
2023/09/12 10:36:11;;;;;;;;;;;21.60;99.90;;;;;;5037884;28;19931;-76
2023/09/12 10:38:41;;;;;;;;;;;21.70;99.90;;;;;;5031742;28;19959;-76
2023/09/12 10:41:09;;;;;;;;;;;21.70;99.90;;;;;;5035215;28;19912;-77
2023/09/12 10:43:35;;;;;;;;;;;21.80;99.90;;;;;;5035120;28;19909;-76
2023/09/12 10:46:03;;;;;;;;;;;21.80;99.90;;;;;;5033529;28;19916;-76
2023/09/12 10:48:29;;;;;;;;;;;21.90;99.90;;;;;;5034959;28;19912;-77
2023/09/12 10:50:57;;;;;;;;;;;22.00;99.90;;;;;;5038627;28;19907;-77
2023/09/12 10:53:24;;;;;;;;;;;22.00;99.90;;;;;;5037572;28;19905;-76
2023/09/12 10:56:19;;;;;;;;;;;22.00;99.90;;;;;;5036639;28;19916;-77
2023/09/12 10:59:25;;;;;;;;;;;22.00;99.90;;;;;;5033922;28;20389;-76
2023/09/12 11:01:50;;;;;;;;;;;22.10;99.90;;;;;;5035144;28;19905;-76
2023/09/12 11:04:19;;;;;;;;;;;22.10;99.90;;;;;;5036145;28;20339;-76
2023/09/12 11:06:45;;;;;;;;;;;22.00;99.90;;;;;;5037153;28;20388;-76
2023/09/12 11:09:14;;;;;;;;;;;21.80;99.90;;;;;;5036755;28;19912;-76
2023/09/12 11:11:43;;;;;;;;;;;21.80;99.90;;;;;;5035841;28;20422;-76
2023/09/12 11:14:09;;;;;;;;;;;21.80;99.90;;;;;;5036117;28;19908;-76
2023/09/12 11:16:35;;;;;;;;;;;21.80;99.90;;;;;;5035773;28;19992;-76
2023/09/12 11:19:16;;;;;;;;;;;21.70;99.90;;;;;;5036494;28;20347;-76
2023/09/12 11:21:46;;;;;;;;;;;21.70;99.90;;;;;;5034406;28;19909;-76
2023/09/12 11:24:12;;;;;;;;;;;21.80;99.90;;;;;;5035152;28;19916;-76
2023/09/12 11:26:53;;;;;;;;;;;21.80;99.90;;;;;;5032427;28;19908;-76
2023/09/12 11:29:19;;;;;;;;;;;21.80;99.90;;;;;;5034842;28;19991;-76
2023/09/12 11:31:52;;;;;;;;;;;22.00;99.90;;;;;;5032568;28;19948;-77
2023/09/12 11:34:18;;;;;;;;;;;22.00;99.90;;;;;;5035514;28;19909;-76
2023/09/12 11:36:45;;;;;;;;;;;22.20;99.90;;;;;;5036949;28;19923;-77
2023/09/12 11:39:27;;;;;;;;;;;22.30;99.90;;;;;;5035444;28;19948;-76
2023/09/12 11:41:53;;;;;;;;;;;22.40;99.90;;;;;;5029844;28;20044;-78
2023/09/12 11:44:19;;;;;;;;;;;22.60;99.90;;;;;;5036223;28;19908;-76
2023/09/12 11:46:47;;;;;;;;;;;22.80;99.90;;;;;;5029369;28;19913;-77
2023/09/12 11:49:13;;;;;;;;;;;22.90;99.90;;;;;;5033636;28;19909;-76
2023/09/12 11:51:46;;;;;;;;;;;23.00;99.90;;;;;;5023712;28;19916;-76
2023/09/12 11:54:13;;;;;;;;;;;23.20;99.90;;;;;;5033132;28;20000;-76
2023/09/12 11:56:39;;;;;;;;;;;23.30;99.90;;;;;;5027302;28;19913;-77
2023/09/12 11:59:05;;;;;;;;;;;23.40;99.90;;;;;;5036717;28;19959;-77
2023/09/12 12:01:32;;;;;;;;;;;23.50;99.90;;;;;;5035213;28;20589;-76
2023/09/12 12:03:57;;;;;;;;;;;23.40;99.90;;;;;;5031696;28;19909;-76
2023/09/12 12:06:23;;;;;;;;;;;23.40;99.90;;;;;;5032387;28;19932;-76
2023/09/12 12:08:48;;;;;;;;;;;23.50;99.90;;;;;;5028916;28;21131;-76
2023/09/12 12:11:14;;;;;;;;;;;23.50;99.90;;;;;;5033966;28;19912;-76
2023/09/12 12:13:40;;;;;;;;;;;23.40;99.90;;;;;;5030516;28;19905;-77
2023/09/12 12:16:18;;;;;;;;;;;23.40;99.90;;;;;;5033939;28;19905;-76
2023/09/12 12:18:43;;;;;;;;;;;23.40;99.90;;;;;;5027353;28;19909;-76
2023/09/12 12:21:09;;;;;;;;;;;23.40;99.90;;;;;;5029190;28;19911;-76
2023/09/12 12:23:34;;;;;;;;;;;23.40;99.90;;;;;;5023210;28;19905;-75
2023/09/12 12:26:08;;;;;;;;;;;23.40;99.90;;;;;;5018300;28;19909;-76
2023/09/12 12:28:37;;;;;;;;;;;23.30;99.90;;;;;;5023066;28;19913;-76
2023/09/12 12:31:03;;;;;;;;;;;23.20;99.90;;;;;;5022654;28;19909;-76
2023/09/12 12:33:28;;;;;;;;;;;23.20;99.90;;;;;;5022911;28;19909;-75
2023/09/12 12:36:00;;;;;;;;;;;23.00;99.90;;;;;;5027825;28;19917;-75
2023/09/12 12:38:25;;;;;;;;;;;22.90;99.90;;;;;;5028568;28;19959;-75
2023/09/12 12:40:51;;;;;;;;;;;22.80;99.90;;;;;;5021943;28;19905;-75
2023/09/12 12:43:18;;;;;;;;;;;22.60;99.90;;;;;;5023819;28;20361;-75
2023/09/12 12:45:52;;;;;;;;;;;22.60;99.90;;;;;;5039055;28;19916;-74
2023/09/12 12:48:28;;;;;;;;;;;22.50;99.90;;;;;;5019178;28;19925;-75
2023/09/12 12:50:54;;;;;;;;;;;22.50;99.90;;;;;;5031939;28;19960;-75
2023/09/12 12:53:36;;;;;;;;;;;22.50;99.90;;;;;;5024812;28;20280;-75
2023/09/12 12:56:02;;;;;;;;;;;22.60;99.90;;;;;;5027123;28;19905;-75
2023/09/12 12:58:30;;;;;;;;;;;22.50;99.90;;;;;;5031939;28;19905;-75
2023/09/12 13:00:55;;;;;;;;;;;22.40;99.90;;;;;;5027302;28;19906;-75
2023/09/12 13:03:21;;;;;;;;;;;22.40;99.90;;;;;;5032181;28;20411;-75
2023/09/12 13:05:46;;;;;;;;;;;22.30;99.90;;;;;;5028018;28;20434;-74
2023/09/12 13:08:12;;;;;;;;;;;22.30;99.90;;;;;;5032524;28;19905;-75
2023/09/12 13:10:37;;;;;;;;;;;22.20;99.90;;;;;;5026776;28;19906;-74
2023/09/12 13:13:04;;;;;;;;;;;22.00;99.90;;;;;;5032717;28;19945;-74
2023/09/12 13:15:29;;;;;;;;;;;21.90;99.90;;;;;;5027466;28;20587;-74
2023/09/12 13:17:55;;;;;;;;;;;21.90;99.90;;;;;;5031126;28;19909;-74
2023/09/12 13:20:20;;;;;;;;;;;22.10;99.90;;;;;;5026293;28;19905;-74
2023/09/12 13:22:46;;;;;;;;;;;22.20;99.90;;;;;;5032250;28;19905;-74
2023/09/12 13:25:11;;;;;;;;;;;22.20;99.90;;;;;;5027359;28;19905;-74
2023/09/12 13:27:37;;;;;;;;;;;22.30;99.90;;;;;;5031965;28;19905;-74
2023/09/12 13:30:04;;;;;;;;;;;22.20;99.90;;;;;;5029124;28;19955;-74
2023/09/12 13:32:30;;;;;;;;;;;22.10;99.90;;;;;;5030539;28;19955;-74
2023/09/12 13:34:55;;;;;;;;;;;22.20;99.90;;;;;;5024149;28;19948;-75
2023/09/12 13:37:21;;;;;;;;;;;22.40;99.90;;;;;;5036056;28;20411;-75
2023/09/12 13:39:48;;;;;;;;;;;22.40;99.90;;;;;;5041729;28;20396;-74
2023/09/12 13:42:18;;;;;;;;;;;22.50;99.90;;;;;;5030013;28;19955;-74
2023/09/12 13:44:44;;;;;;;;;;;22.60;99.90;;;;;;5029705;28;19951;-75
2023/09/12 13:47:09;;;;;;;;;;;22.70;99.90;;;;;;5030748;28;20311;-74
2023/09/12 13:49:35;;;;;;;;;;;22.90;99.90;;;;;;5028656;28;20296;-75
2023/09/12 13:52:00;;;;;;;;;;;23.10;99.90;;;;;;5028522;28;19996;-74
2023/09/12 13:54:26;;;;;;;;;;;23.20;99.90;;;;;;5033267;28;20000;-74
2023/09/12 13:56:51;;;;;;;;;;;23.30;99.90;;;;;;5034756;28;19905;-76
2023/09/12 13:59:20;;;;;;;;;;;23.20;99.90;;;;;;5029547;28;19906;-75
2023/09/12 14:01:46;;;;;;;;;;;23.40;99.90;;;;;;5034082;28;19909;-75
2023/09/12 14:04:11;;;;;;;;;;;23.50;99.90;;;;;;5033214;28;19909;-75
2023/09/12 14:06:37;;;;;;;;;;;23.70;99.90;;;;;;5029785;28;19941;-75
2023/09/12 14:09:02;;;;;;;;;;;23.70;99.90;;;;;;5029747;28;19936;-75
2023/09/12 14:11:28;;;;;;;;;;;23.60;99.90;;;;;;5031654;28;20355;-76
2023/09/12 14:13:53;;;;;;;;;;;23.80;99.90;;;;;;5034000;28;20009;-75